Terminal Aerodrome Forecast
Issued by NWS

Home | Current Version | Previous Version | Text Only | Print | Product List | Glossary On
Versions: 1 2 3 4 5 6 7 8 9 10 11 12
000
FTUS44 KTSA 032337
TAFBVO
TAF
KBVO 032337Z 0400/0424 VRB06KT P6SM FEW035 SCT045 BKN070
     FM040300 00000KT P6SM SCT250
     FM041400 07005KT P6SM FEW250
     FM041800 12006KT P6SM SCT050=

USA.gov is the U.S. government's official web portal to all federal, state and local government web resources and services.